createdAt,value
2016-07-15T00:02:06.290Z,44.6
2016-07-15T00:07:05.502Z,44.5
2016-07-15T00:12:05.101Z,44.5
2016-07-15T00:17:07.668Z,44.8
2016-07-15T00:22:05.558Z,44.7
2016-07-15T00:27:04.965Z,44.8
2016-07-15T00:32:05.479Z,44.8
2016-07-15T00:37:05.399Z,44.8
2016-07-15T00:42:06.189Z,44.7
2016-07-15T00:47:06.332Z,44.9
2016-07-15T00:52:05.975Z,44.8
2016-07-15T00:57:05.724Z,45.1
2016-07-15T01:02:05.696Z,45.3
2016-07-15T01:07:05.947Z,45.3
2016-07-15T01:12:05.621Z,45.3
2016-07-15T01:17:07.136Z,45.4
2016-07-15T01:22:05.448Z,45.1
2016-07-15T01:27:05.505Z,45.1
2016-07-15T01:32:05.721Z,45.1
2016-07-15T01:37:05.236Z,45.2
2016-07-15T01:42:05.380Z,45.2
2016-07-15T01:47:05.248Z,45.2
2016-07-15T01:52:05.702Z,45.0
2016-07-15T01:57:06.023Z,45.2
2016-07-15T02:02:05.850Z,45.5
2016-07-15T02:07:06.299Z,45.3
2016-07-15T02:12:06.236Z,45.3
2016-07-15T02:17:06.761Z,45.3
2016-07-15T02:22:05.390Z,45.2
2016-07-15T02:27:06.136Z,45.0
2016-07-15T02:32:05.380Z,45.3
2016-07-15T02:37:05.232Z,45.2
2016-07-15T02:42:05.355Z,45.1
2016-07-15T02:47:05.878Z,45.3
2016-07-15T02:52:05.234Z,45.1
2016-07-15T02:57:05.269Z,44.9
2016-07-15T03:02:08.836Z,45.1
2016-07-15T03:07:05.347Z,45.1
2016-07-15T03:12:06.060Z,45.3
2016-07-15T03:17:27.653Z,45.2
2016-07-15T03:22:05.487Z,45.3
2016-07-15T03:27:05.609Z,45.2
2016-07-15T03:32:28.018Z,45.4
2016-07-15T03:37:05.611Z,45.5
2016-07-15T03:42:05.501Z,45.5
2016-07-15T03:47:27.701Z,45.5
2016-07-15T03:52:05.033Z,45.6
2016-07-15T03:57:05.498Z,45.5
2016-07-15T04:02:27.431Z,45.5
2016-07-15T04:07:04.501Z,45.3
2016-07-15T04:12:10.991Z,45.1
2016-07-15T04:17:27.784Z,45.1
2016-07-15T04:22:05.167Z,45.3
2016-07-15T04:27:05.023Z,45.2
2016-07-15T04:32:27.453Z,45.0
2016-07-15T04:37:05.010Z,45.0
2016-07-15T04:42:05.453Z,44.8
2016-07-15T04:47:20.592Z,44.5
2016-07-15T04:52:04.624Z,44.4
2016-07-15T04:57:05.572Z,44.3
2016-07-15T05:02:22.167Z,44.1
2016-07-15T05:07:04.743Z,44.1
2016-07-15T05:12:04.992Z,43.8
2016-07-15T05:17:23.519Z,43.8
2016-07-15T05:22:04.225Z,43.7
2016-07-15T05:27:04.370Z,43.6
2016-07-15T05:32:23.936Z,43.6
2016-07-15T05:37:04.749Z,43.6
2016-07-15T05:42:04.403Z,43.4
2016-07-15T05:47:24.791Z,43.5
2016-07-15T05:52:04.613Z,43.6
2016-07-15T05:57:04.885Z,43.5
2016-07-15T06:02:26.425Z,43.9
2016-07-15T06:07:05.696Z,43.2
2016-07-15T06:12:05.257Z,42.7
2016-07-15T06:17:27.524Z,42.6
2016-07-15T06:22:05.963Z,42.2
2016-07-15T06:27:05.319Z,43.4
2016-07-15T06:32:28.509Z,43.6
2016-07-15T06:37:04.402Z,43.6
2016-07-15T06:42:04.403Z,43.6
2016-07-15T06:47:29.571Z,44.0
2016-07-15T06:52:04.475Z,43.6
2016-07-15T06:57:05.777Z,43.8
2016-07-15T07:02:29.330Z,43.6
2016-07-15T07:07:04.002Z,43.2
2016-07-15T07:12:05.189Z,42.8
2016-07-15T07:17:31.322Z,42.6
2016-07-15T07:22:07.803Z,42.5
2016-07-15T07:27:05.984Z,43.8
2016-07-15T07:32:30.866Z,44.0
2016-07-15T07:37:04.919Z,44.2
2016-07-15T07:42:10.370Z,44.1
2016-07-15T07:47:33.184Z,43.3
2016-07-15T07:52:06.465Z,43.2
2016-07-15T07:57:06.293Z,44.4
2016-07-15T08:02:29.677Z,44.9
2016-07-15T08:07:06.377Z,44.9
2016-07-15T08:12:06.632Z,45.1
2016-07-15T08:17:32.331Z,44.9
2016-07-15T08:22:06.616Z,44.7
2016-07-15T08:27:07.418Z,44.2
2016-07-15T08:32:33.877Z,44.2
2016-07-15T08:37:07.115Z,42.3
2016-07-15T08:42:05.391Z,42.9
2016-07-15T08:47:31.516Z,43.1
2016-07-15T08:52:06.196Z,43.5
2016-07-15T08:57:06.674Z,43.5
2016-07-15T09:02:35.590Z,43.9
2016-07-15T09:07:07.501Z,43.7
2016-07-15T09:12:06.250Z,42.1
2016-07-15T09:17:30.965Z,41.9
2016-07-15T09:22:06.477Z,42.5
2016-07-15T09:27:07.170Z,42.8
2016-07-15T09:32:35.166Z,42.7
2016-07-15T09:37:06.351Z,42.6
2016-07-15T09:42:07.159Z,42.5
2016-07-15T09:47:36.750Z,42.6
2016-07-15T09:52:07.462Z,43.2
2016-07-15T09:57:07.852Z,42.7
2016-07-15T10:02:35.235Z,41.1
2016-07-15T10:07:06.733Z,41.1
2016-07-15T10:12:07.605Z,41.9
2016-07-15T10:17:30.361Z,42.6
2016-07-15T10:22:09.511Z,43.0
2016-07-15T10:27:08.106Z,43.6
2016-07-15T10:32:32.259Z,43.4
2016-07-15T10:37:06.792Z,43.3
2016-07-15T10:42:07.233Z,43.3
2016-07-15T10:47:35.087Z,43.3
2016-07-15T10:52:06.710Z,42.6
2016-07-15T10:57:05.848Z,43.0
2016-07-15T11:02:29.040Z,42.9
2016-07-15T11:07:07.276Z,43.2
2016-07-15T11:12:07.155Z,43.1
2016-07-15T11:17:34.181Z,42.8
2016-07-15T11:22:07.992Z,42.8
2016-07-15T11:27:07.132Z,42.5
2016-07-15T11:32:32.985Z,42.3
2016-07-15T11:37:10.038Z,41.7
2016-07-15T11:42:09.237Z,42.1
2016-07-15T11:47:32.882Z,41.4
2016-07-15T11:52:07.094Z,41.3
2016-07-15T11:57:06.655Z,42.0
2016-07-15T12:02:33.333Z,42.7
2016-07-15T12:07:07.679Z,42.4
2016-07-15T12:12:08.297Z,42.2
2016-07-15T12:17:34.075Z,42.2
2016-07-15T12:22:07.098Z,42.2
2016-07-15T12:27:06.345Z,42.7
2016-07-15T12:32:29.422Z,43.2
2016-07-15T12:37:07.042Z,42.8
2016-07-15T12:42:09.433Z,42.5
2016-07-15T12:47:33.569Z,42.2
2016-07-15T12:52:06.310Z,42.3
2016-07-15T12:57:05.870Z,42.7
2016-07-15T13:02:28.460Z,43.1
2016-07-15T13:07:06.359Z,43.2
2016-07-15T13:12:06.999Z,42.9
2016-07-15T13:17:33.336Z,42.6
2016-07-15T13:22:07.320Z,41.7
2016-07-15T13:27:09.288Z,41.7
2016-07-15T13:32:32.785Z,40.9
2016-07-15T13:37:09.555Z,40.3
2016-07-15T13:42:06.891Z,40.4
2016-07-15T13:47:27.862Z,40.3
2016-07-15T13:52:05.798Z,41.8
2016-07-15T13:57:06.748Z,41.7
2016-07-15T20:02:10.567Z,46.0
2016-07-15T20:07:05.475Z,45.9
2016-07-15T20:12:05.745Z,45.7
2016-07-15T20:17:07.980Z,46.1
2016-07-15T20:22:05.870Z,45.8
2016-07-15T20:27:05.173Z,45.7
2016-07-15T20:32:05.936Z,45.7
2016-07-15T20:37:05.729Z,45.8
2016-07-15T20:42:05.862Z,45.9
2016-07-15T20:47:06.012Z,46.1
2016-07-15T20:52:05.734Z,45.9
2016-07-15T20:57:05.395Z,45.9
2016-07-15T21:02:05.892Z,46.0
2016-07-15T21:07:04.943Z,46.0
2016-07-15T21:12:05.752Z,46.2
2016-07-15T21:17:07.894Z,46.4
2016-07-15T21:22:04.826Z,46.4
2016-07-15T21:27:05.314Z,46.4
2016-07-15T21:32:06.199Z,46.5
2016-07-15T21:37:05.925Z,46.3
2016-07-15T21:42:04.871Z,46.4
2016-07-15T21:47:05.728Z,46.5
2016-07-15T21:52:05.634Z,46.5
2016-07-15T21:57:04.709Z,46.2
2016-07-15T22:02:05.368Z,46.2
2016-07-15T22:07:05.381Z,46.1
2016-07-15T22:12:05.604Z,46.1
2016-07-15T22:17:08.231Z,46.1
2016-07-15T22:22:05.930Z,46.0
2016-07-15T22:27:05.859Z,46.1
2016-07-15T22:32:05.979Z,46.0
2016-07-15T22:37:05.580Z,45.9
2016-07-15T22:42:05.770Z,45.9
2016-07-15T22:47:06.405Z,45.8
2016-07-15T22:52:05.859Z,45.8
2016-07-15T22:57:05.992Z,45.8
2016-07-15T23:02:05.267Z,45.6
2016-07-15T23:07:05.417Z,45.5
2016-07-15T23:12:05.092Z,45.7
2016-07-15T23:17:07.735Z,45.5
2016-07-15T23:22:05.486Z,45.6
2016-07-15T23:27:05.314Z,45.6
2016-07-15T23:32:04.804Z,45.6
2016-07-15T23:37:05.617Z,45.7
2016-07-15T23:42:05.093Z,45.7
2016-07-15T23:47:06.149Z,45.6
2016-07-15T23:52:05.658Z,45.7
2016-07-15T23:57:05.319Z,45.5
